Forside
METAR-TAF:

METAR-TAF

Lufthavne :

Flughafen Bremen

Bremen, Tyskland

Breddekreds: 53-03N, længdekreds: 008-48E, højde: 3 m

Aktuelle vejr

Denne rapport blev lavet for 23 minutter siden, kl. 10:20 UTC
Vind 10 kt fra syd, varierende mellem sydøst og syd
Temperatur 11°C
Fugtighed 66%
Tryk 1004 hPa
Sigt 10 km eller mere
ingen skyer under 1500m og ingen cumulonimbus

METAR: EDDW 021020Z AUTO 17010KT 130V190 CAVOK 11/05 Q1004 NOSIG

Tid: 11:43 (10:43 UTC)

Vejrudsigter

Denne rapport blev lavet for 5 timer og 43 minutter siden, kl. 05:00 UTC
Foreløbig gælder fra 02 på 06 UTC til 03 på 06 UTC
Vind 8 kt fra sydøst
Sigt 10 km eller mere
ingen skyer under 1500m og ingen cumulonimbus

TAF: EDDW 020500Z 0206/0306 13008KT CAVOK

Vejrobservationer og prognoser fra mere end 4000 lufthavne (METAR og TAF).

De gule og røde prikker repræsenterer de meteorologiske stationer.

Flyt musen over at se navnet på stationen.

Så klik over at se vejr observationer og prognoser.

At skifte det kort: Klik på de grønne knapper med et sort kors for at zoome ind; på den grønne knap med en bindestreg for at zoome ud; eller på de grønne pile for tilstødende kort.


METAR-TAF: